Time,TemperatureF,DewpointF,PressureIn,WindDirection,WindDirectionDegrees,WindSpeedMPH,WindSpeedGustMPH,Humidity,HourlyPrecipIn,Conditions,Clouds,dailyrainin,SoftwareType,DateUTC
2013-09-16 00:02:00,63.9,55.9,29.77,SSW,202,4.2,4.2,76,0.00,,,0.00,WeatherCatV1.21B27,2013-09-16 07:02:00,
2013-09-16 00:07:00,63.7,55.9,29.77,West,270,0.0,0.0,76,0.00,,,0.00,WeatherCatV1.21B27,2013-09-16 07:07:00,
2013-09-16 00:12:00,63.7,55.9,29.77,WSW,247,6.3,6.3,76,0.00,,,0.00,WeatherCatV1.21B27,2013-09-16 07:12:00,
2013-09-16 00:17:00,63.7,56.3,29.77,WSW,247,2.7,2.9,77,0.00,,,0.00,WeatherCatV1.21B27,2013-09-16 07:17:00,
2013-09-16 00:22:00,63.5,56.1,29.77,SW,225,0.0,0.0,77,0.00,,,0.00,WeatherCatV1.21B27,2013-09-16 07:22:00,
2013-09-16 00:27:00,63.3,55.9,29.77,West,270,5.1,5.1,77,0.00,,,0.00,WeatherCatV1.21B27,2013-09-16 07:27:00,
2013-09-16 00:32:00,63.3,55.9,29.78,WNW,292,5.6,5.6,77,0.00,,,0.00,WeatherCatV1.21B27,2013-09-16 07:32:00,
2013-09-16 00:37:00,63.1,55.8,29.78,WSW,247,2.5,2.5,77,0.00,,,0.00,WeatherCatV1.21B27,2013-09-16 07:37:00,
2013-09-16 00:42:00,63.1,56.1,29.78,North,0,11.0,11.0,78,0.00,,,0.00,WeatherCatV1.21B27,2013-09-16 07:42:00,
2013-09-16 00:47:00,62.8,55.4,29.78,NW,315,2.5,3.4,77,0.00,,,0.00,WeatherCatV1.21B27,2013-09-16 07:47:00,
2013-09-16 00:52:00,62.6,55.6,29.78,NW,315,1.1,1.1,78,0.00,,,0.00,WeatherCatV1.21B27,2013-09-16 07:52:00,
2013-09-16 00:57:00,62.4,55.4,29.78,NW,315,6.7,6.7,78,0.00,,,0.00,WeatherCatV1.21B27,2013-09-16 07:57:00,
2013-09-16 01:02:00,62.4,55.4,29.78,NNW,337,0.0,6.3,78,0.00,,,0.00,WeatherCatV1.21B27,2013-09-16 08:02:00,
2013-09-16 01:07:00,62.2,55.6,29.78,North,0,1.3,1.3,79,0.00,,,0.00,WeatherCatV1.21B27,2013-09-16 08:07:00,
2013-09-16 01:12:00,62.2,55.6,29.78,NW,315,1.1,1.1,79,0.00,,,0.00,WeatherCatV1.21B27,2013-09-16 08:12:00,
2013-09-16 01:17:00,62.2,55.6,29.78,WNW,292,1.6,4.5,79,0.00,,,0.00,WeatherCatV1.21B27,2013-09-16 08:17:00,
2013-09-16 01:22:00,62.2,55.6,29.78,NW,315,0.0,0.0,79,0.00,,,0.00,WeatherCatV1.21B27,2013-09-16 08:22:00,
2013-09-16 01:27:00,62.2,55.6,29.78,NNW,337,0.0,0.0,79,0.00,,,0.00,WeatherCatV1.21B27,2013-09-16 08:27:00,
2013-09-16 01:32:00,62.2,55.6,29.78,North,0,0.0,0.9,79,0.00,,,0.00,WeatherCatV1.21B27,2013-09-16 08:32:00,
2013-09-16 01:37:00,62.2,55.3,29.78,North,0,0.0,0.0,78,0.00,,,0.00,WeatherCatV1.21B27,2013-09-16 08:37:00,
2013-09-16 01:42:00,62.2,55.3,29.78,North,0,0.0,0.0,78,0.00,,,0.00,WeatherCatV1.21B27,2013-09-16 08:42:00,
2013-09-16 01:47:00,62.2,55.3,29.78,West,270,0.0,0.0,78,0.00,,,0.00,WeatherCatV1.21B27,2013-09-16 08:47:00,
2013-09-16 01:52:00,62.2,55.3,29.78,West,270,0.0,0.0,78,0.00,,,0.00,WeatherCatV1.21B27,2013-09-16 08:52:00,
2013-09-16 01:57:00,62.2,55.3,29.78,West,270,0.0,0.0,78,0.00,,,0.00,WeatherCatV1.21B27,2013-09-16 08:57:00,
2013-09-16 02:02:00,62.2,55.3,29.78,West,270,0.0,0.0,78,0.00,,,0.00,WeatherCatV1.21B27,2013-09-16 09:02:00,
2013-09-16 02:07:00,62.1,55.1,29.78,West,270,0.0,0.0,78,0.00,,,0.00,WeatherCatV1.21B27,2013-09-16 09:07:00,
2013-09-16 02:12:00,62.1,55.1,29.78,WNW,292,0.0,0.0,78,0.00,,,0.00,WeatherCatV1.21B27,2013-09-16 09:12:00,
2013-09-16 02:17:00,62.1,55.1,29.78,WNW,292,0.0,0.0,78,0.00,,,0.00,WeatherCatV1.21B27,2013-09-16 09:17:00,
2013-09-16 02:22:00,61.9,54.9,29.78,WNW,292,0.0,0.0,78,0.00,,,0.00,WeatherCatV1.21B27,2013-09-16 09:22:00,
2013-09-16 02:27:00,61.9,54.9,29.78,West,270,0.0,0.0,78,0.00,,,0.00,WeatherCatV1.21B27,2013-09-16 09:27:00,
2013-09-16 02:32:00,61.9,54.9,29.77,NW,315,0.0,0.0,78,0.00,,,0.00,WeatherCatV1.21B27,2013-09-16 09:32:00,
2013-09-16 02:37:00,61.9,54.9,29.78,WNW,292,0.0,0.0,78,0.00,,,0.00,WeatherCatV1.21B27,2013-09-16 09:37:00,
2013-09-16 02:42:00,61.7,55.3,29.77,West,270,0.0,0.0,78,0.00,,,0.00,WeatherCatV1.21B27,2013-09-16 09:42:00,
2013-09-16 02:47:00,61.9,54.9,29.77,WSW,247,0.0,0.0,78,0.00,,,0.00,WeatherCatV1.21B27,2013-09-16 09:47:00,
2013-09-16 02:52:00,61.9,54.9,29.77,WSW,247,0.0,0.0,78,0.00,,,0.00,WeatherCatV1.21B27,2013-09-16 09:52:00,
2013-09-16 02:57:00,61.9,54.9,29.77,West,270,0.0,0.0,78,0.00,,,0.00,WeatherCatV1.21B27,2013-09-16 09:57:00,
2013-09-16 03:02:00,61.9,54.9,29.78,West,270,0.0,0.0,78,0.00,,,0.00,WeatherCatV1.21B27,2013-09-16 10:02:00,
2013-09-16 03:07:00,61.9,54.9,29.78,West,270,0.0,0.0,78,0.00,,,0.00,WeatherCatV1.21B27,2013-09-16 10:07:00,
2013-09-16 03:12:00,61.9,54.8,29.78,West,270,0.0,0.0,78,0.00,,,0.00,WeatherCatV1.21B27,2013-09-16 10:12:00,
2013-09-16 03:17:00,61.7,54.8,29.78,West,270,0.0,0.0,78,0.00,,,0.00,WeatherCatV1.21B27,2013-09-16 10:17:00,
2013-09-16 03:22:00,61.7,54.8,29.78,WSW,247,0.0,0.0,78,0.00,,,0.00,WeatherCatV1.21B27,2013-09-16 10:22:00,
2013-09-16 03:27:00,61.7,54.8,29.78,WSW,247,0.0,0.0,78,0.00,,,0.00,WeatherCatV1.21B27,2013-09-16 10:27:00,
2013-09-16 03:32:00,61.7,54.8,29.78,WSW,247,0.0,0.0,78,0.00,,,0.00,WeatherCatV1.21B27,2013-09-16 10:32:00,
2013-09-16 03:37:00,61.5,54.6,29.78,WSW,247,0.0,0.0,78,0.00,,,0.00,WeatherCatV1.21B27,2013-09-16 10:37:00,
2013-09-16 03:42:00,61.3,54.5,29.78,SSE,157,0.0,0.0,78,0.00,,,0.00,WeatherCatV1.21B27,2013-09-16 10:42:00,
2013-09-16 03:47:00,61.3,54.5,29.78,SSE,157,0.0,0.0,78,0.00,,,0.00,WeatherCatV1.21B27,2013-09-16 10:47:00,
2013-09-16 03:52:00,61.3,54.5,29.78,SSE,157,0.0,0.0,78,0.00,,,0.00,WeatherCatV1.21B27,2013-09-16 10:52:00,
2013-09-16 03:57:00,61.2,54.3,29.78,SSE,157,0.0,0.0,78,0.00,,,0.00,WeatherCatV1.21B27,2013-09-16 10:57:00,
2013-09-16 04:02:00,61.2,54.3,29.78,SSE,157,0.0,0.0,78,0.00,,,0.00,WeatherCatV1.21B27,2013-09-16 11:02:00,
2013-09-16 04:07:00,61.0,54.1,29.78,SSE,157,0.0,0.0,78,0.00,,,0.00,WeatherCatV1.21B27,2013-09-16 11:07:00,
2013-09-16 04:12:00,61.0,54.1,29.78,SSE,157,0.0,0.0,78,0.00,,,0.00,WeatherCatV1.21B27,2013-09-16 11:12:00,
2013-09-16 04:17:00,61.0,54.1,29.78,SSE,157,0.0,0.0,78,0.00,,,0.00,WeatherCatV1.21B27,2013-09-16 11:17:00,
2013-09-16 04:22:00,60.8,54.0,29.78,SSE,157,0.0,0.0,78,0.00,,,0.00,WeatherCatV1.21B27,2013-09-16 11:22:00,
2013-09-16 04:27:00,60.6,53.8,29.78,SSE,157,0.0,0.0,78,0.00,,,0.00,WeatherCatV1.21B27,2013-09-16 11:27:00,
2013-09-16 04:32:00,60.6,53.8,29.77,WSW,247,0.0,0.0,78,0.00,,,0.00,WeatherCatV1.21B27,2013-09-16 11:32:00,
2013-09-16 04:37:00,60.6,53.8,29.77,WSW,247,0.0,0.0,78,0.00,,,0.00,WeatherCatV1.21B27,2013-09-16 11:37:00,
2013-09-16 04:42:00,60.4,53.6,29.77,WSW,247,0.0,0.0,78,0.00,,,0.00,WeatherCatV1.21B27,2013-09-16 11:42:00,
2013-09-16 04:47:00,60.4,53.6,29.77,WSW,247,0.0,0.0,78,0.00,,,0.00,WeatherCatV1.21B27,2013-09-16 11:47:00,
2013-09-16 04:52:00,60.4,53.6,29.77,WSW,247,0.0,0.0,78,0.00,,,0.00,WeatherCatV1.21B27,2013-09-16 11:52:00,
2013-09-16 04:57:00,60.1,53.2,29.77,WSW,247,0.0,0.0,78,0.00,,,0.00,WeatherCatV1.21B27,2013-09-16 11:57:00,
2013-09-16 05:02:00,60.1,53.2,29.77,WSW,247,0.0,0.0,78,0.00,,,0.00,WeatherCatV1.21B27,2013-09-16 12:02:00,
2013-09-16 05:07:00,60.1,53.2,29.77,WSW,247,0.0,0.0,78,0.00,,,0.00,WeatherCatV1.21B27,2013-09-16 12:07:00,
2013-09-16 05:12:00,59.9,53.1,29.77,WSW,247,0.0,0.0,78,0.00,,,0.00,WeatherCatV1.21B27,2013-09-16 12:12:00,
2013-09-16 05:17:00,59.7,52.9,29.78,WSW,247,0.0,0.0,78,0.00,,,0.00,WeatherCatV1.21B27,2013-09-16 12:17:00,
2013-09-16 05:22:00,59.7,52.9,29.78,WSW,247,0.0,0.0,78,0.00,,,0.00,WeatherCatV1.21B27,2013-09-16 12:22:00,
2013-09-16 05:27:00,59.5,52.7,29.78,WSW,247,0.0,0.0,78,0.00,,,0.00,WeatherCatV1.21B27,2013-09-16 12:27:00,
2013-09-16 05:32:00,59.5,52.7,29.78,WSW,247,0.0,0.0,78,0.00,,,0.00,WeatherCatV1.21B27,2013-09-16 12:32:00,
2013-09-16 05:37:00,59.5,52.7,29.78,WSW,247,0.0,0.0,78,0.00,,,0.00,WeatherCatV1.21B27,2013-09-16 12:37:00,
2013-09-16 05:42:00,59.4,52.5,29.77,WSW,247,0.0,0.0,78,0.00,,,0.00,WeatherCatV1.21B27,2013-09-16 12:42:00,
2013-09-16 05:47:00,59.2,52.7,29.78,WSW,247,0.0,0.0,79,0.00,,,0.00,WeatherCatV1.21B27,2013-09-16 12:47:00,
2013-09-16 05:52:00,59.2,52.7,29.78,WSW,247,0.0,0.0,79,0.00,,,0.00,WeatherCatV1.21B27,2013-09-16 12:52:00,
2013-09-16 05:57:00,59.2,52.7,29.78,WSW,247,0.0,0.0,79,0.00,,,0.00,WeatherCatV1.21B27,2013-09-16 12:57:00,
2013-09-16 06:02:00,59.2,52.7,29.78,WSW,247,0.0,0.0,79,0.00,,,0.00,WeatherCatV1.21B27,2013-09-16 13:02:00,
2013-09-16 06:07:00,59.2,52.7,29.78,WSW,247,0.0,0.0,79,0.00,,,0.00,WeatherCatV1.21B27,2013-09-16 13:07:00,
2013-09-16 06:12:00,58.8,52.3,29.78,WSW,247,0.0,0.0,79,0.00,,,0.00,WeatherCatV1.21B27,2013-09-16 13:12:00,
2013-09-16 06:17:00,58.8,52.3,29.78,NE,45,0.0,0.0,79,0.00,,,0.00,WeatherCatV1.21B27,2013-09-16 13:17:00,
2013-09-16 06:22:00,58.8,52.3,29.78,NE,45,0.0,0.0,79,0.00,,,0.00,WeatherCatV1.21B27,2013-09-16 13:22:00,
2013-09-16 06:27:00,58.8,52.7,29.78,North,0,0.0,2.0,80,0.00,,,0.00,WeatherCatV1.21B27,2013-09-16 13:27:00,
2013-09-16 06:32:00,58.8,52.7,29.78,NNW,337,0.0,4.5,80,0.00,,,0.00,WeatherCatV1.21B27,2013-09-16 13:32:00,
2013-09-16 06:37:00,58.8,52.7,29.78,NNE,22,0.0,0.0,80,0.00,,,0.00,WeatherCatV1.21B27,2013-09-16 13:37:00,
2013-09-16 06:42:00,59.2,53.1,29.78,NNW,337,0.0,0.0,80,0.00,,,0.00,WeatherCatV1.21B27,2013-09-16 13:42:00,
2013-09-16 06:47:00,59.2,53.1,29.78,North,0,0.0,4.2,80,0.00,,,0.00,WeatherCatV1.21B27,2013-09-16 13:47:00,
2013-09-16 06:52:00,59.2,53.1,29.78,NNW,337,0.0,0.0,80,0.00,,,0.00,WeatherCatV1.21B27,2013-09-16 13:52:00,
2013-09-16 06:57:00,59.2,53.1,29.78,NNW,337,0.0,0.0,80,0.00,,,0.00,WeatherCatV1.21B27,2013-09-16 13:57:00,
2013-09-16 07:02:00,59.2,53.1,29.78,West,270,0.0,0.0,80,0.00,,,0.00,WeatherCatV1.21B27,2013-09-16 14:02:00,
2013-09-16 07:07:00,59.2,53.1,29.78,NNW,337,0.0,0.0,80,0.00,,,0.00,WeatherCatV1.21B27,2013-09-16 14:07:00,
2013-09-16 07:12:00,59.0,52.9,29.78,NW,315,6.5,6.5,80,0.00,,,0.00,WeatherCatV1.21B27,2013-09-16 14:12:00,
2013-09-16 07:17:00,59.2,53.1,29.78,NE,45,0.0,0.0,80,0.00,,,0.00,WeatherCatV1.21B27,2013-09-16 14:17:00,
2013-09-16 07:22:00,59.2,53.1,29.78,NE,45,0.0,0.0,80,0.00,,,0.00,WeatherCatV1.21B27,2013-09-16 14:22:00,
2013-09-16 07:27:00,59.4,53.2,29.78,NE,45,0.0,0.0,80,0.00,,,0.00,WeatherCatV1.21B27,2013-09-16 14:27:00,
2013-09-16 07:32:00,59.5,53.4,29.79,NE,45,0.0,0.0,80,0.00,,,0.00,WeatherCatV1.21B27,2013-09-16 14:32:00,
2013-09-16 07:37:00,59.5,53.1,29.79,NE,45,0.0,0.0,79,0.00,,,0.00,WeatherCatV1.21B27,2013-09-16 14:37:00,
2013-09-16 07:42:00,59.7,53.2,29.79,NE,45,0.0,0.0,79,0.00,,,0.00,WeatherCatV1.21B27,2013-09-16 14:42:00,
2013-09-16 07:47:00,59.7,53.2,29.79,NE,45,0.0,0.0,79,0.00,,,0.00,WeatherCatV1.21B27,2013-09-16 14:47:00,
2013-09-16 07:52:00,59.7,53.2,29.79,NE,45,0.0,0.0,79,0.00,,,0.00,WeatherCatV1.21B27,2013-09-16 14:52:00,
2013-09-16 07:57:00,59.7,53.2,29.79,ENE,67,0.0,0.0,79,0.00,,,0.00,WeatherCatV1.21B27,2013-09-16 14:57:00,
2013-09-16 08:02:00,59.9,53.4,29.79,ENE,67,0.0,0.0,79,0.00,,,0.00,WeatherCatV1.21B27,2013-09-16 15:02:00,
2013-09-16 08:07:00,60.1,53.6,29.79,ENE,67,0.0,0.0,79,0.00,,,0.00,WeatherCatV1.21B27,2013-09-16 15:07:00,
2013-09-16 08:12:00,60.3,53.8,29.80,East,90,0.0,0.0,79,0.00,,,0.00,WeatherCatV1.21B27,2013-09-16 15:12:00,
2013-09-16 08:17:00,60.4,54.0,29.79,ENE,67,0.0,0.0,79,0.00,,,0.00,WeatherCatV1.21B27,2013-09-16 15:17:00,
2013-09-16 08:22:00,60.6,54.1,29.79,East,90,0.0,0.0,79,0.00,,,0.00,WeatherCatV1.21B27,2013-09-16 15:22:00,
2013-09-16 08:27:00,61.0,54.5,29.79,ENE,67,0.9,0.9,79,0.00,,,0.00,WeatherCatV1.21B27,2013-09-16 15:27:00,
2013-09-16 08:32:00,61.0,54.5,29.80,ENE,67,0.0,0.0,79,0.00,,,0.00,WeatherCatV1.21B27,2013-09-16 15:32:00,
2013-09-16 08:37:00,61.3,54.5,29.80,ENE,67,2.5,2.5,78,0.00,,,0.00,WeatherCatV1.21B27,2013-09-16 15:37:00,
2013-09-16 08:42:00,61.7,54.8,29.79,ESE,112,0.0,0.0,78,0.00,,,0.00,WeatherCatV1.21B27,2013-09-16 15:42:00,
2013-09-16 08:47:00,62.1,55.1,29.79,ENE,67,0.0,0.0,78,0.00,,,0.00,WeatherCatV1.21B27,2013-09-16 15:47:00,
2013-09-16 08:52:00,62.4,55.1,29.80,ENE,67,0.0,0.0,77,0.00,,,0.00,WeatherCatV1.21B27,2013-09-16 15:52:00,
2013-09-16 08:57:00,62.8,55.4,29.80,ENE,67,0.0,0.0,77,0.00,,,0.00,WeatherCatV1.21B27,2013-09-16 15:57:00,
2013-09-16 09:02:00,63.1,55.8,29.80,ENE,67,0.0,0.0,77,0.00,,,0.00,WeatherCatV1.21B27,2013-09-16 16:02:00,
2013-09-16 09:07:00,63.5,55.8,29.80,ENE,67,2.7,2.7,76,0.00,,,0.00,WeatherCatV1.21B27,2013-09-16 16:07:00,
2013-09-16 09:12:00,64.0,55.9,29.80,ENE,67,0.0,0.0,75,0.00,,,0.00,WeatherCatV1.21B27,2013-09-16 16:12:00,
2013-09-16 09:17:00,64.2,56.1,29.80,East,90,2.9,2.9,75,0.00,,,0.00,WeatherCatV1.21B27,2013-09-16 16:17:00,
2013-09-16 09:22:00,64.6,56.5,29.80,ENE,67,2.9,2.9,75,0.00,,,0.00,WeatherCatV1.21B27,2013-09-16 16:22:00,
2013-09-16 09:27:00,65.1,56.6,29.81,ENE,67,2.5,2.5,74,0.00,,,0.00,WeatherCatV1.21B27,2013-09-16 16:27:00,
2013-09-16 09:32:00,65.5,57.0,29.81,ENE,67,2.2,2.2,74,0.00,,,0.00,WeatherCatV1.21B27,2013-09-16 16:32:00,
2013-09-16 09:37:00,65.8,56.9,29.80,ENE,67,4.2,4.2,73,0.00,,,0.00,WeatherCatV1.21B27,2013-09-16 16:37:00,
2013-09-16 09:42:00,66.4,57.1,29.81,East,90,0.0,0.0,72,0.00,,,0.00,WeatherCatV1.21B27,2013-09-16 16:42:00,
2013-09-16 09:47:00,66.6,57.2,29.81,East,90,7.2,7.2,72,0.00,,,0.00,WeatherCatV1.21B27,2013-09-16 16:47:00,
2013-09-16 09:52:00,66.9,57.6,29.80,ENE,67,2.7,2.7,72,0.00,,,0.00,WeatherCatV1.21B27,2013-09-16 16:52:00,
2013-09-16 09:57:00,67.3,58.0,29.80,ENE,67,0.0,3.8,72,0.00,,,0.00,WeatherCatV1.21B27,2013-09-16 16:57:00,
2013-09-16 10:02:00,67.6,57.9,29.80,ENE,67,0.0,0.0,71,0.00,,,0.00,WeatherCatV1.21B27,2013-09-16 17:02:00,
2013-09-16 10:07:00,67.8,57.7,29.80,NE,45,0.7,0.7,70,0.00,,,0.00,WeatherCatV1.21B27,2013-09-16 17:07:00,
2013-09-16 10:12:00,68.2,57.7,29.81,ENE,67,1.6,1.6,69,0.00,,,0.00,WeatherCatV1.21B27,2013-09-16 17:12:00,
2013-09-16 10:17:00,68.4,57.8,29.81,ENE,67,6.7,6.7,69,0.00,,,0.00,WeatherCatV1.21B27,2013-09-16 17:17:00,
2013-09-16 10:22:00,68.7,58.1,29.81,ENE,67,3.6,3.6,69,0.00,,,0.00,WeatherCatV1.21B27,2013-09-16 17:22:00,
2013-09-16 10:27:00,69.4,58.4,29.81,ESE,112,2.9,3.6,68,0.00,,,0.00,WeatherCatV1.21B27,2013-09-16 17:27:00,
2013-09-16 10:32:00,69.6,58.5,29.81,ENE,67,7.4,7.4,68,0.00,,,0.00,WeatherCatV1.21B27,2013-09-16 17:32:00,
2013-09-16 10:37:00,70.0,58.5,29.81,NE,45,6.9,6.9,67,0.00,,,0.00,WeatherCatV1.21B27,2013-09-16 17:37:00,
2013-09-16 10:42:00,70.3,58.8,29.81,NNE,22,2.7,3.1,67,0.00,,,0.00,WeatherCatV1.21B27,2013-09-16 17:42:00,
2013-09-16 10:47:00,70.5,59.0,29.80,ENE,67,6.9,6.9,67,0.00,,,0.00,WeatherCatV1.21B27,2013-09-16 17:47:00,
2013-09-16 10:52:00,70.9,58.9,29.81,ENE,67,5.8,5.8,66,0.00,,,0.00,WeatherCatV1.21B27,2013-09-16 17:52:00,
2013-09-16 10:57:00,71.2,58.8,29.81,NE,45,3.1,8.9,65,0.00,,,0.00,WeatherCatV1.21B27,2013-09-16 17:57:00,
2013-09-16 11:02:00,71.4,59.0,29.81,ESE,112,7.4,7.4,65,0.00,,,0.00,WeatherCatV1.21B27,2013-09-16 18:02:00,
2013-09-16 11:07:00,71.8,59.3,29.81,East,90,5.6,5.6,65,0.00,,,0.00,WeatherCatV1.21B27,2013-09-16 18:07:00,
2013-09-16 11:12:00,72.1,59.2,29.80,East,90,6.7,7.2,64,0.00,,,0.00,WeatherCatV1.21B27,2013-09-16 18:12:00,
2013-09-16 11:17:00,72.1,58.8,29.80,ENE,67,4.0,4.0,63,0.00,,,0.00,WeatherCatV1.21B27,2013-09-16 18:17:00,
2013-09-16 11:22:00,72.3,59.0,29.80,ENE,67,8.5,8.5,63,0.00,,,0.00,WeatherCatV1.21B27,2013-09-16 18:22:00,
2013-09-16 11:27:00,72.7,59.3,29.80,ENE,67,1.1,5.8,63,0.00,,,0.00,WeatherCatV1.21B27,2013-09-16 18:27:00,
2013-09-16 11:32:00,73.0,59.7,29.80,East,90,10.1,10.1,63,0.00,,,0.00,WeatherCatV1.21B27,2013-09-16 18:32:00,
2013-09-16 11:37:00,73.2,59.4,29.80,ESE,112,10.5,10.5,62,0.00,,,0.00,WeatherCatV1.21B27,2013-09-16 18:37:00,
2013-09-16 11:42:00,73.4,59.5,29.80,ENE,67,8.3,8.3,62,0.00,,,0.00,WeatherCatV1.21B27,2013-09-16 18:42:00,
2013-09-16 11:47:00,73.9,59.6,29.80,ENE,67,7.8,7.8,61,0.00,,,0.00,WeatherCatV1.21B27,2013-09-16 18:47:00,
2013-09-16 11:52:00,74.1,59.4,29.79,NE,45,4.0,4.0,60,0.00,,,0.00,WeatherCatV1.21B27,2013-09-16 18:52:00,
2013-09-16 11:57:00,75.4,60.1,29.80,ENE,67,7.2,7.2,59,0.00,,,0.00,WeatherCatV1.21B27,2013-09-16 18:57:00,
2013-09-16 12:02:00,75.9,60.1,29.80,NE,45,6.7,6.7,58,0.00,,,0.00,WeatherCatV1.21B27,2013-09-16 19:02:00,
2013-09-16 12:07:00,76.1,60.2,29.80,ENE,67,6.5,7.2,58,0.00,,,0.00,WeatherCatV1.21B27,2013-09-16 19:07:00,
2013-09-16 12:12:00,76.1,60.2,29.80,East,90,5.4,10.7,58,0.00,,,0.00,WeatherCatV1.21B27,2013-09-16 19:12:00,
2013-09-16 12:17:00,75.9,59.6,29.80,East,90,6.3,6.3,57,0.00,,,0.00,WeatherCatV1.21B27,2013-09-16 19:17:00,
2013-09-16 12:22:00,75.7,59.4,29.80,ENE,67,10.1,10.1,57,0.00,,,0.00,WeatherCatV1.21B27,2013-09-16 19:22:00,
2013-09-16 12:27:00,75.7,59.4,29.80,ENE,67,6.5,10.5,57,0.00,,,0.00,WeatherCatV1.21B27,2013-09-16 19:27:00,
2013-09-16 12:32:00,75.7,59.4,29.79,ENE,67,6.3,6.3,57,0.00,,,0.00,WeatherCatV1.21B27,2013-09-16 19:32:00,
2013-09-16 12:37:00,75.7,59.6,29.79,ENE,67,8.1,8.1,57,0.00,,,0.00,WeatherCatV1.21B27,2013-09-16 19:37:00,
2013-09-16 12:42:00,75.9,59.6,29.79,ENE,67,5.1,6.0,57,0.00,,,0.00,WeatherCatV1.21B27,2013-09-16 19:42:00,
2013-09-16 12:47:00,76.3,59.9,29.79,ENE,67,3.4,3.4,57,0.00,,,0.00,WeatherCatV1.21B27,2013-09-16 19:47:00,
2013-09-16 12:52:00,76.5,59.7,29.79,ESE,112,7.8,7.8,56,0.00,,,0.00,WeatherCatV1.21B27,2013-09-16 19:52:00,
2013-09-16 12:57:00,76.8,59.9,29.79,ENE,67,6.3,6.3,56,0.00,,,0.00,WeatherCatV1.21B27,2013-09-16 19:57:00,
2013-09-16 13:02:00,76.8,59.9,29.79,ENE,67,6.3,6.3,56,0.00,,,0.00,WeatherCatV1.21B27,2013-09-16 20:02:00,
2013-09-16 13:07:00,76.8,59.9,29.78,ESE,112,4.7,7.4,56,0.00,,,0.00,WeatherCatV1.21B27,2013-09-16 20:07:00,
2013-09-16 13:12:00,77.2,60.2,29.78,ENE,67,11.6,11.6,56,0.00,,,0.00,WeatherCatV1.21B27,2013-09-16 20:12:00,
2013-09-16 13:17:00,77.4,59.9,29.78,ENE,67,8.7,8.7,55,0.00,,,0.00,WeatherCatV1.21B27,2013-09-16 20:17:00,
2013-09-16 13:22:00,77.4,59.9,29.78,ENE,67,4.9,4.9,55,0.00,,,0.00,WeatherCatV1.21B27,2013-09-16 20:22:00,
2013-09-16 13:27:00,77.5,60.0,29.78,East,90,5.4,6.9,55,0.00,,,0.00,WeatherCatV1.21B27,2013-09-16 20:27:00,
2013-09-16 13:32:00,77.9,59.9,29.78,East,90,6.3,6.3,54,0.00,,,0.00,WeatherCatV1.21B27,2013-09-16 20:32:00,
2013-09-16 13:37:00,77.9,60.4,29.77,ENE,67,6.3,6.3,55,0.00,,,0.00,WeatherCatV1.21B27,2013-09-16 20:37:00,
2013-09-16 13:42:00,77.7,59.7,29.77,ENE,67,2.9,2.9,54,0.00,,,0.00,WeatherCatV1.21B27,2013-09-16 20:42:00,
2013-09-16 13:47:00,77.7,59.7,29.76,ENE,67,6.9,6.9,54,0.00,,,0.00,WeatherCatV1.21B27,2013-09-16 20:47:00,
2013-09-16 13:52:00,77.7,59.7,29.76,NE,45,1.3,4.5,54,0.00,,,0.00,WeatherCatV1.21B27,2013-09-16 20:52:00,
2013-09-16 13:57:00,77.9,59.9,29.76,East,90,8.7,8.7,54,0.00,,,0.00,WeatherCatV1.21B27,2013-09-16 20:57:00,
2013-09-16 14:02:00,77.9,59.4,29.76,East,90,1.8,1.8,53,0.00,,,0.00,WeatherCatV1.21B27,2013-09-16 21:02:00,
2013-09-16 14:07:00,77.9,59.4,29.76,ENE,67,6.0,6.0,53,0.00,,,0.00,WeatherCatV1.21B27,2013-09-16 21:07:00,
2013-09-16 14:12:00,77.9,59.4,29.76,ENE,67,4.7,4.7,53,0.00,,,0.00,WeatherCatV1.21B27,2013-09-16 21:12:00,
2013-09-16 14:17:00,77.9,59.4,29.75,ENE,67,6.9,6.9,53,0.00,,,0.00,WeatherCatV1.21B27,2013-09-16 21:17:00,
2013-09-16 14:22:00,78.1,59.5,29.76,East,90,2.0,2.0,53,0.00,,,0.00,WeatherCatV1.21B27,2013-09-16 21:22:00,
2013-09-16 14:27:00,78.3,59.7,29.75,ENE,67,8.3,8.3,53,0.00,,,0.00,WeatherCatV1.21B27,2013-09-16 21:27:00,
2013-09-16 14:32:00,78.4,59.3,29.75,SE,135,2.2,2.2,52,0.00,,,0.00,WeatherCatV1.21B27,2013-09-16 21:32:00,
2013-09-16 14:37:00,78.6,59.5,29.74,ENE,67,4.2,5.6,52,0.00,,,0.00,WeatherCatV1.21B27,2013-09-16 21:37:00,
2013-09-16 14:42:00,78.6,59.5,29.74,ENE,67,4.9,4.9,52,0.00,,,0.00,WeatherCatV1.21B27,2013-09-16 21:42:00,
2013-09-16 14:47:00,78.6,59.5,29.74,ENE,67,4.9,4.9,52,0.00,,,0.00,WeatherCatV1.21B27,2013-09-16 21:47:00,
2013-09-16 14:52:00,78.6,59.0,29.74,NE,45,6.0,7.4,51,0.00,,,0.00,WeatherCatV1.21B27,2013-09-16 21:52:00,
2013-09-16 14:57:00,79.0,59.3,29.74,ENE,67,0.0,0.0,51,0.00,,,0.00,WeatherCatV1.21B27,2013-09-16 21:57:00,
2013-09-16 15:02:00,79.0,59.3,29.73,East,90,3.6,3.6,51,0.00,,,0.00,WeatherCatV1.21B27,2013-09-16 22:02:00,
2013-09-16 15:07:00,79.3,59.7,29.73,ENE,67,4.0,6.3,51,0.00,,,0.00,WeatherCatV1.21B27,2013-09-16 22:07:00,
2013-09-16 15:12:00,79.3,59.7,29.73,ENE,67,5.4,5.4,51,0.00,,,0.00,WeatherCatV1.21B27,2013-09-16 22:12:00,
2013-09-16 15:17:00,79.5,59.3,29.73,North,0,6.3,6.3,50,0.00,,,0.00,WeatherCatV1.21B27,2013-09-16 22:17:00,
2013-09-16 15:22:00,79.9,59.6,29.73,SSE,157,2.9,4.5,50,0.00,,,0.00,WeatherCatV1.21B27,2013-09-16 22:22:00,
2013-09-16 15:27:00,79.9,58.4,29.73,NW,315,6.7,6.7,48,0.00,,,0.00,WeatherCatV1.21B27,2013-09-16 22:27:00,
2013-09-16 15:32:00,79.9,57.8,29.73,WSW,247,4.2,4.2,47,0.00,,,0.00,WeatherCatV1.21B27,2013-09-16 22:32:00,
2013-09-16 15:37:00,79.3,56.7,29.73,WSW,247,11.6,11.6,46,0.00,,,0.00,WeatherCatV1.21B27,2013-09-16 22:37:00,
2013-09-16 15:42:00,79.2,55.9,29.73,ESE,112,9.4,9.4,45,0.00,,,0.00,WeatherCatV1.21B27,2013-09-16 22:42:00,
2013-09-16 15:47:00,78.6,55.4,29.73,West,270,7.4,7.4,45,0.00,,,0.00,WeatherCatV1.21B27,2013-09-16 22:47:00,
2013-09-16 15:52:00,78.1,55.5,29.73,NW,315,9.4,9.4,46,0.00,,,0.00,WeatherCatV1.21B27,2013-09-16 22:52:00,
2013-09-16 15:57:00,77.7,55.2,29.73,WNW,292,5.4,5.4,46,0.00,,,0.00,WeatherCatV1.21B27,2013-09-16 22:57:00,
2013-09-16 16:02:00,77.2,54.7,29.73,West,270,7.4,7.4,46,0.00,,,0.00,WeatherCatV1.21B27,2013-09-16 23:02:00,
2013-09-16 16:07:00,76.8,55.0,29.72,West,270,2.7,10.1,47,0.00,,,0.00,WeatherCatV1.21B27,2013-09-16 23:07:00,
2013-09-16 16:12:00,76.8,55.0,29.72,North,0,5.8,5.8,47,0.00,,,0.00,WeatherCatV1.21B27,2013-09-16 23:12:00,
2013-09-16 16:17:00,76.6,54.9,29.73,NNE,22,4.2,4.2,47,0.00,,,0.00,WeatherCatV1.21B27,2013-09-16 23:17:00,
2013-09-16 16:22:00,76.1,54.4,29.72,North,0,3.6,7.8,47,0.00,,,0.00,WeatherCatV1.21B27,2013-09-16 23:22:00,
2013-09-16 16:27:00,75.7,54.7,29.72,North,0,6.9,6.9,48,0.00,,,0.00,WeatherCatV1.21B27,2013-09-16 23:27:00,
2013-09-16 16:32:00,75.7,55.3,29.73,North,0,6.5,6.5,49,0.00,,,0.00,WeatherCatV1.21B27,2013-09-16 23:32:00,
2013-09-16 16:37:00,75.7,55.3,29.72,North,0,5.6,5.6,49,0.00,,,0.00,WeatherCatV1.21B27,2013-09-16 23:37:00,
2013-09-16 16:42:00,75.6,55.1,29.73,NNW,337,4.5,4.5,49,0.00,,,0.00,WeatherCatV1.21B27,2013-09-16 23:42:00,
2013-09-16 16:47:00,75.4,54.3,29.72,NW,315,2.9,2.9,48,0.00,,,0.00,WeatherCatV1.21B27,2013-09-16 23:47:00,
2013-09-16 16:52:00,75.4,55.0,29.73,North,0,6.0,6.9,49,0.00,,,0.00,WeatherCatV1.21B27,2013-09-16 23:52:00,
2013-09-16 16:57:00,75.0,54.6,29.72,NNE,22,2.5,2.5,49,0.00,,,0.00,WeatherCatV1.21B27,2013-09-16 23:57:00,
2013-09-16 17:02:00,75.0,54.6,29.72,NE,45,6.3,6.3,49,0.00,,,0.00,WeatherCatV1.21B27,2013-09-17 00:02:00,
2013-09-16 17:07:00,74.5,54.7,29.72,NW,315,6.7,6.7,50,0.00,,,0.00,WeatherCatV1.21B27,2013-09-17 00:07:00,
2013-09-16 17:12:00,74.1,54.3,29.72,NNE,22,14.1,14.1,50,0.00,,,0.00,WeatherCatV1.21B27,2013-09-17 00:12:00,
2013-09-16 17:17:00,73.6,53.8,29.72,NNW,337,4.0,4.0,50,0.00,,,0.00,WeatherCatV1.21B27,2013-09-17 00:17:00,
2013-09-16 17:22:00,73.2,53.9,29.72,North,0,1.6,7.6,51,0.00,,,0.00,WeatherCatV1.21B27,2013-09-17 00:22:00,
2013-09-16 17:27:00,73.0,53.8,29.72,NW,315,2.7,2.7,51,0.00,,,0.00,WeatherCatV1.21B27,2013-09-17 00:27:00,
2013-09-16 17:32:00,72.9,53.6,29.72,WNW,292,8.7,8.7,51,0.00,,,0.00,WeatherCatV1.21B27,2013-09-17 00:32:00,
2013-09-16 17:37:00,72.3,53.6,29.72,NNE,22,1.8,3.4,52,0.00,,,0.00,WeatherCatV1.21B27,2013-09-17 00:37:00,
2013-09-16 17:42:00,72.3,54.1,29.71,ENE,67,2.2,2.2,53,0.00,,,0.00,WeatherCatV1.21B27,2013-09-17 00:42:00,
2013-09-16 17:47:00,72.5,54.3,29.71,ENE,67,1.3,1.3,53,0.00,,,0.00,WeatherCatV1.21B27,2013-09-17 00:47:00,
2013-09-16 17:52:00,72.5,53.8,29.71,North,0,4.2,4.7,52,0.00,,,0.00,WeatherCatV1.21B27,2013-09-17 00:52:00,
2013-09-16 17:57:00,72.0,53.8,29.71,North,0,1.3,1.3,53,0.00,,,0.00,WeatherCatV1.21B27,2013-09-17 00:57:00,
2013-09-16 18:02:00,72.1,54.5,29.72,NE,45,5.6,5.6,54,0.00,,,0.00,WeatherCatV1.21B27,2013-09-17 01:02:00,
2013-09-16 18:07:00,72.1,54.0,29.71,North,0,4.9,5.4,53,0.00,,,0.00,WeatherCatV1.21B27,2013-09-17 01:07:00,
2013-09-16 18:12:00,72.1,54.0,29.71,SSW,202,0.0,0.0,53,0.00,,,0.00,WeatherCatV1.21B27,2013-09-17 01:12:00,
2013-09-16 18:17:00,71.8,53.7,29.71,NNE,22,5.8,5.8,53,0.00,,,0.00,WeatherCatV1.21B27,2013-09-17 01:17:00,
2013-09-16 18:22:00,71.4,53.8,29.71,NW,315,4.9,4.9,54,0.00,,,0.00,WeatherCatV1.21B27,2013-09-17 01:22:00,
2013-09-16 18:27:00,71.2,53.7,29.71,North,0,5.4,5.4,54,0.00,,,0.00,WeatherCatV1.21B27,2013-09-17 01:27:00,
2013-09-16 18:32:00,71.2,53.7,29.71,WSW,247,3.1,4.9,54,0.00,,,0.00,WeatherCatV1.21B27,2013-09-17 01:32:00,
2013-09-16 18:37:00,70.5,53.0,29.72,WNW,292,4.9,4.9,54,0.00,,,0.00,WeatherCatV1.21B27,2013-09-17 01:37:00,
2013-09-16 18:42:00,70.3,53.4,29.71,WNW,292,6.0,6.0,55,0.00,,,0.00,WeatherCatV1.21B27,2013-09-17 01:42:00,
2013-09-16 18:47:00,70.3,53.4,29.72,SW,225,6.7,6.7,56,0.00,,,0.00,WeatherCatV1.21B27,2013-09-17 01:47:00,
2013-09-16 18:52:00,69.6,53.2,29.71,NW,315,6.7,6.7,56,0.00,,,0.00,WeatherCatV1.21B27,2013-09-17 01:52:00,
2013-09-16 18:57:00,69.4,53.0,29.71,North,0,2.0,2.0,56,0.00,,,0.00,WeatherCatV1.21B27,2013-09-17 01:57:00,
2013-09-16 19:02:00,68.9,52.5,29.71,NW,315,6.7,11.9,56,0.00,,,0.00,WeatherCatV1.21B27,2013-09-17 02:02:00,
2013-09-16 19:07:00,68.2,52.3,29.71,SSW,202,6.9,6.9,57,0.00,,,0.00,WeatherCatV1.21B27,2013-09-17 02:07:00,
2013-09-16 19:12:00,67.5,52.1,29.71,NW,315,11.4,11.4,58,0.00,,,0.00,WeatherCatV1.21B27,2013-09-17 02:12:00,
2013-09-16 19:17:00,66.7,51.7,29.71,SW,225,2.7,2.7,58,0.00,,,0.00,WeatherCatV1.21B27,2013-09-17 02:17:00,
2013-09-16 19:22:00,66.4,51.7,29.71,NW,315,9.8,9.8,59,0.00,,,0.00,WeatherCatV1.21B27,2013-09-17 02:22:00,
2013-09-16 19:27:00,65.8,51.1,29.71,NW,315,4.5,4.5,59,0.00,,,0.00,WeatherCatV1.21B27,2013-09-17 02:27:00,
2013-09-16 19:32:00,65.8,51.1,29.71,NW,315,4.5,4.5,59,0.00,,,0.00,WeatherCatV1.21B27,2013-09-17 02:32:00,
2013-09-16 19:37:00,65.3,50.6,29.71,NW,315,4.5,4.5,59,0.00,,,0.00,WeatherCatV1.21B27,2013-09-17 02:37:00,
2013-09-16 19:42:00,65.3,51.5,29.71,NNW,337,6.5,6.5,61,0.00,,,0.00,WeatherCatV1.21B27,2013-09-17 02:42:00,
2013-09-16 19:47:00,65.1,51.5,29.71,NNW,337,6.5,6.5,61,0.00,,,0.00,WeatherCatV1.21B27,2013-09-17 02:47:00,
2013-09-16 19:52:00,65.1,51.3,29.71,NNW,337,6.5,6.5,61,0.00,,,0.00,WeatherCatV1.21B27,2013-09-17 02:52:00,
2013-09-16 19:57:00,64.8,51.4,29.71,NNW,337,2.2,2.2,62,0.00,,,0.00,WeatherCatV1.21B27,2013-09-17 02:57:00,
2013-09-16 20:02:00,64.4,51.0,29.71,NNW,337,2.2,2.2,62,0.00,,,0.00,WeatherCatV1.21B27,2013-09-17 03:02:00,
2013-09-16 20:07:00,64.2,51.3,29.71,WNW,292,2.9,2.9,63,0.00,,,0.00,WeatherCatV1.21B27,2013-09-17 03:07:00,
2013-09-16 20:12:00,64.2,51.3,29.71,WSW,247,7.6,7.6,63,0.00,,,0.00,WeatherCatV1.21B27,2013-09-17 03:12:00,
2013-09-16 20:17:00,63.7,50.8,29.71,NW,315,3.6,7.6,63,0.00,,,0.00,WeatherCatV1.21B27,2013-09-17 03:17:00,
2013-09-16 20:22:00,63.7,51.2,29.71,NW,315,6.3,6.3,64,0.00,,,0.00,WeatherCatV1.21B27,2013-09-17 03:22:00,
2013-09-16 20:27:00,63.7,51.2,29.71,NW,315,6.3,6.3,64,0.00,,,0.00,WeatherCatV1.21B27,2013-09-17 03:27:00,
2013-09-16 20:32:00,63.7,51.2,29.71,NW,315,6.3,6.3,64,0.00,,,0.00,WeatherCatV1.21B27,2013-09-17 03:32:00,
2013-09-16 20:38:00,-999.0,-99.9,29.72,NW,315,-999.0,0.0,-999,0.00,,,0.00,WeatherCatV1.21B27,2013-09-17 03:38:00,
2013-09-16 20:43:00,-999.0,-99.9,29.72,NW,315,-999.0,0.0,-999,0.00,,,0.00,WeatherCatV1.21B27,2013-09-17 03:43:00,
2013-09-16 20:48:00,63.7,51.2,29.71,NW,315,-999.0,0.0,64,0.00,,,0.00,WeatherCatV1.21B27,2013-09-17 03:48:00,
2013-09-16 20:53:00,63.7,51.2,29.72,NW,315,-999.0,0.0,64,0.00,,,0.00,WeatherCatV1.21B27,2013-09-17 03:53:00,
2013-09-16 20:58:00,63.7,51.4,29.72,NW,315,4.9,4.9,66,0.00,,,0.00,WeatherCatV1.21B27,2013-09-17 03:58:00,
2013-09-16 21:01:00,62.8,51.2,29.72,WNW,292,4.0,4.9,66,0.00,,,0.00,WeatherCatV1.21B27,2013-09-17 04:01:00,
2013-09-16 21:06:00,62.6,51.0,29.72,NNW,337,3.6,3.6,66,0.00,,,0.00,WeatherCatV1.21B27,2013-09-17 04:06:00,
2013-09-16 21:11:00,62.4,50.9,29.72,NW,315,2.5,5.8,66,0.00,,,0.00,WeatherCatV1.21B27,2013-09-17 04:11:00,
2013-09-16 21:16:00,62.4,50.9,29.73,NE,45,7.6,7.6,66,0.00,,,0.00,WeatherCatV1.21B27,2013-09-17 04:16:00,
2013-09-16 21:21:00,62.4,51.3,29.73,North,0,3.8,3.8,67,0.00,,,0.00,WeatherCatV1.21B27,2013-09-17 04:21:00,
2013-09-16 21:26:00,62.1,51.0,29.73,North,0,4.2,4.2,67,0.00,,,0.00,WeatherCatV1.21B27,2013-09-17 04:26:00,
2013-09-16 21:31:00,61.9,50.8,29.73,North,0,5.4,5.4,67,0.00,,,0.00,WeatherCatV1.21B27,2013-09-17 04:31:00,
2013-09-16 21:36:00,61.7,50.7,29.72,WSW,247,5.1,5.1,67,0.00,,,0.00,WeatherCatV1.21B27,2013-09-17 04:36:00,
2013-09-16 21:41:00,61.5,50.9,29.73,NE,45,0.0,5.1,68,0.00,,,0.00,WeatherCatV1.21B27,2013-09-17 04:41:00,
2013-09-16 21:46:00,61.5,50.9,29.73,NNW,337,7.2,7.2,68,0.00,,,0.00,WeatherCatV1.21B27,2013-09-17 04:46:00,
2013-09-16 21:51:00,61.3,51.2,29.73,NNW,337,0.0,0.0,69,0.00,,,0.00,WeatherCatV1.21B27,2013-09-17 04:51:00,
2013-09-16 21:56:00,61.3,51.2,29.73,NNE,22,4.5,4.5,69,0.00,,,0.00,WeatherCatV1.21B27,2013-09-17 04:56:00,
2013-09-16 22:04:00,61.3,51.2,29.74,NNW,337,6.0,6.0,69,0.00,,,0.00,WeatherCatV1.21B27,2013-09-17 05:04:00,
2013-09-16 22:09:00,61.0,50.8,29.73,North,0,0.0,0.0,69,0.00,,,0.00,WeatherCatV1.21B27,2013-09-17 05:09:00,
2013-09-16 22:14:00,61.0,51.2,29.74,NNE,22,0.0,0.0,70,0.00,,,0.00,WeatherCatV1.21B27,2013-09-17 05:14:00,
2013-09-16 22:19:00,61.0,51.2,29.74,NW,315,6.9,6.9,70,0.00,,,0.00,WeatherCatV1.21B27,2013-09-17 05:19:00,
2013-09-16 22:24:00,61.0,51.2,29.74,North,0,3.4,3.4,70,0.00,,,0.00,WeatherCatV1.21B27,2013-09-17 05:24:00,
2013-09-16 22:29:00,60.8,51.1,29.73,NNW,337,0.0,0.0,70,0.00,,,0.00,WeatherCatV1.21B27,2013-09-17 05:29:00,
2013-09-16 22:34:00,60.8,51.1,29.73,NW,315,8.3,8.3,70,0.00,,,0.00,WeatherCatV1.21B27,2013-09-17 05:34:00,
2013-09-16 22:39:00,60.8,51.4,29.73,NNW,337,5.4,5.4,71,0.00,,,0.00,WeatherCatV1.21B27,2013-09-17 05:39:00,
2013-09-16 22:44:00,60.6,51.3,29.73,WNW,292,0.0,3.8,71,0.00,,,0.00,WeatherCatV1.21B27,2013-09-17 05:44:00,
2013-09-16 22:49:00,60.6,51.3,29.73,West,270,3.4,3.4,71,0.00,,,0.00,WeatherCatV1.21B27,2013-09-17 05:49:00,
2013-09-16 22:54:00,60.6,51.3,29.74,West,270,2.2,3.4,71,0.00,,,0.00,WeatherCatV1.21B27,2013-09-17 05:54:00,
2013-09-16 22:59:00,60.6,51.6,29.73,NNW,337,4.9,4.9,72,0.00,,,0.00,WeatherCatV1.21B27,2013-09-17 05:59:00,
2013-09-16 23:04:00,60.4,51.4,29.74,NNW,337,2.9,2.9,72,0.00,,,0.00,WeatherCatV1.21B27,2013-09-17 06:04:00,
2013-09-16 23:09:00,60.4,51.4,29.74,NNE,22,6.9,6.9,72,0.00,,,0.00,WeatherCatV1.21B27,2013-09-17 06:09:00,
2013-09-16 23:14:00,60.4,51.8,29.74,ENE,67,4.7,4.7,73,0.00,,,0.00,WeatherCatV1.21B27,2013-09-17 06:14:00,
2013-09-16 23:19:00,60.1,51.4,29.74,ENE,67,2.9,2.9,73,0.00,,,0.00,WeatherCatV1.21B27,2013-09-17 06:19:00,
2013-09-16 23:24:00,60.1,51.4,29.74,ENE,67,1.6,1.6,73,0.00,,,0.00,WeatherCatV1.21B27,2013-09-17 06:24:00,
2013-09-16 23:29:00,60.4,51.8,29.74,ENE,67,2.9,2.9,73,0.00,,,0.00,WeatherCatV1.21B27,2013-09-17 06:29:00,
2013-09-16 23:34:00,60.4,51.8,29.73,NNW,337,0.0,0.0,73,0.00,,,0.00,WeatherCatV1.21B27,2013-09-17 06:34:00,
2013-09-16 23:39:00,60.4,51.8,29.74,East,90,0.0,0.0,73,0.00,,,0.00,WeatherCatV1.21B27,2013-09-17 06:39:00,
2013-09-16 23:44:00,60.4,51.8,29.73,ENE,67,6.9,6.9,73,0.00,,,0.00,WeatherCatV1.21B27,2013-09-17 06:44:00,
2013-09-16 23:49:00,60.6,52.0,29.74,ENE,67,5.1,5.1,73,0.00,,,0.00,WeatherCatV1.21B27,2013-09-17 06:49:00,
2013-09-16 23:54:00,60.6,52.0,29.74,ENE,67,4.2,4.2,73,0.00,,,0.00,WeatherCatV1.21B27,2013-09-17 06:54:00,
2013-09-16 23:59:00,60.6,52.3,29.73,ESE,112,6.5,7.4,74,0.00,,,0.00,WeatherCatV1.21B27,2013-09-17 06:59:00,